Terminal Aerodrome Forecast
Issued by NWS

Home | Current Version | Previous Version | Graphics & Text | Print | Product List | Glossary On
Versions: 1 2 3 4 5 6 7 8 9 10 11 12 13 14 15 16 17 18 19 20 21 22 23 24 25
000
FTUS43 KGRB 190213 AAA
TAFCWA
TAF AMD
KCWA 190213Z 1902/1924 23006KT P6SM SKC WS015/27035KT
     FM190400 22005KT 5SM BR OVC006
     FM191100 21003KT 1 1/2SM BR OVC004
     FM191700 19003KT 5SM BR BKN010=

USA.gov is the U.S. government's official web portal to all federal, state and local government web resources and services.